createdAt,value
2018-11-28T00:01:25.796Z,4.27
2018-11-28T00:03:57.056Z,4.47
2018-11-28T00:06:27.837Z,5.10
2018-11-28T00:08:58.755Z,8.13
2018-11-28T00:11:29.881Z,2.57
2018-11-28T00:14:00.777Z,4.60
2018-11-28T00:16:31.842Z,6.57
2018-11-28T00:19:02.671Z,3.80
2018-11-28T00:21:33.436Z,6.33
2018-11-28T00:24:04.227Z,5.47
2018-11-28T00:26:35.169Z,8.40
2018-11-28T00:29:06.248Z,4.47
2018-11-28T00:31:36.973Z,5.73
2018-11-28T00:34:08.225Z,4.00
2018-11-28T00:36:39.226Z,6.93
2018-11-28T00:39:10.824Z,5.57
2018-11-28T00:41:41.583Z,6.37
2018-11-28T00:44:12.426Z,7.20
2018-11-28T00:46:43.348Z,4.63
2018-11-28T00:49:14.244Z,8.37
2018-11-28T00:51:45.332Z,4.73
2018-11-28T00:54:17.254Z,4.40
2018-11-28T00:56:48.072Z,4.20
2018-11-28T00:59:19.293Z,6.43
2018-11-28T01:01:50.281Z,4.57
2018-11-28T01:04:21.107Z,3.73
2018-11-28T01:06:52.059Z,6.10
2018-11-28T01:09:22.869Z,3.97
2018-11-28T01:11:53.935Z,2.83
2018-11-28T01:14:24.941Z,4.60
2018-11-28T01:16:55.961Z,4.70
2018-11-28T01:19:26.919Z,5.60
2018-11-28T01:21:57.826Z,7.80
2018-11-28T01:24:28.775Z,5.07
2018-11-28T01:26:59.580Z,4.83
2018-11-28T01:29:30.252Z,5.63
2018-11-28T01:32:01.110Z,4.63
2018-11-28T01:34:31.656Z,6.27
2018-11-28T01:37:02.410Z,4.50
2018-11-28T01:39:33.462Z,4.43
2018-11-28T01:42:04.297Z,5.97
2018-11-28T01:44:35.077Z,5.00
2018-11-28T01:47:06.865Z,4.70
2018-11-28T01:49:37.877Z,7.60
2018-11-28T01:52:08.798Z,4.67
2018-11-28T01:54:39.656Z,9.10
2018-11-28T01:57:10.460Z,6.23
2018-11-28T01:59:41.306Z,4.93
2018-11-28T02:02:12.084Z,4.53
2018-11-28T02:04:43.107Z,4.37
2018-11-28T02:07:13.891Z,6.67
2018-11-28T02:09:44.811Z,3.90
2018-11-28T02:12:15.672Z,3.63
2018-11-28T02:14:46.299Z,3.10
2018-11-28T02:17:17.358Z,3.93
2018-11-28T02:19:48.251Z,4.67
2018-11-28T02:22:19.453Z,3.20
2018-11-28T02:24:50.111Z,3.67
2018-11-28T02:27:20.781Z,3.87
2018-11-28T02:29:51.700Z,4.50
2018-11-28T02:32:22.813Z,2.93
2018-11-28T02:34:53.710Z,3.97
2018-11-28T02:37:24.342Z,4.77
2018-11-28T02:39:55.283Z,5.70
2018-11-28T02:42:26.188Z,4.70
2018-11-28T02:44:57.047Z,3.37
2018-11-28T02:47:27.957Z,4.03
2018-11-28T02:49:58.729Z,4.50
2018-11-28T02:52:29.415Z,4.53
2018-11-28T02:55:00.286Z,5.30
2018-11-28T02:57:31.161Z,3.50
2018-11-28T03:00:01.995Z,3.90
2018-11-28T03:02:32.828Z,4.63
2018-11-28T03:05:03.855Z,4.53
2018-11-28T03:07:34.673Z,4.47
2018-11-28T03:10:06.416Z,5.57
2018-11-28T03:12:37.244Z,4.87
2018-11-28T03:15:11.146Z,3.73
2018-11-28T03:17:41.897Z,6.63
2018-11-28T03:20:13.301Z,5.00
2018-11-28T03:22:44.154Z,3.23
2018-11-28T03:25:14.793Z,4.40
2018-11-28T03:27:45.644Z,4.37
2018-11-28T03:30:18.038Z,4.60
2018-11-28T03:32:48.869Z,8.37
2018-11-28T03:35:19.725Z,6.77
2018-11-28T03:37:50.517Z,6.37
2018-11-28T03:40:21.923Z,4.67
2018-11-28T03:42:52.877Z,8.60
2018-11-28T03:45:23.737Z,4.60
2018-11-28T03:47:54.641Z,4.80
2018-11-28T03:50:25.474Z,5.60
2018-11-28T03:52:56.392Z,4.17
2018-11-28T03:55:26.880Z,5.93
2018-11-28T03:57:57.669Z,10.53
2018-11-28T04:00:28.365Z,8.73
2018-11-28T04:02:59.421Z,6.60
2018-11-28T04:05:30.321Z,4.33
2018-11-28T04:08:00.912Z,5.70
2018-11-28T04:10:31.830Z,5.03
2018-11-28T04:13:02.464Z,6.00
2018-11-28T04:15:33.321Z,5.17
2018-11-28T04:18:04.113Z,4.10
2018-11-28T04:20:34.897Z,6.77
2018-11-28T04:23:06.370Z,4.37
2018-11-28T04:25:37.930Z,12.37
2018-11-28T04:28:09.705Z,6.33
2018-11-28T04:30:40.514Z,7.77
2018-11-28T04:33:11.194Z,5.80
2018-11-28T04:35:41.967Z,10.90
2018-11-28T04:38:12.775Z,4.30
2018-11-28T04:40:43.750Z,5.47
2018-11-28T04:43:14.844Z,5.90
2018-11-28T04:45:45.726Z,4.70
2018-11-28T04:48:16.483Z,5.07
2018-11-28T04:50:47.210Z,4.80
2018-11-28T04:53:17.862Z,5.30
2018-11-28T04:55:49.611Z,4.53
2018-11-28T04:58:20.105Z,6.47
2018-11-28T05:00:50.806Z,4.90
2018-11-28T05:03:21.678Z,4.60
2018-11-28T05:05:53.362Z,5.20
2018-11-28T05:08:24.422Z,4.97
2018-11-28T05:10:55.801Z,6.03
2018-11-28T05:13:26.643Z,8.20
2018-11-28T05:15:57.716Z,7.07
2018-11-28T05:18:28.591Z,4.20
2018-11-28T05:20:59.389Z,4.17
2018-11-28T05:23:30.406Z,8.37
2018-11-28T05:26:01.212Z,5.73
2018-11-28T05:28:32.243Z,7.63
2018-11-28T05:31:02.990Z,7.97
2018-11-28T05:33:33.912Z,7.17
2018-11-28T05:36:05.756Z,4.73
2018-11-28T05:38:36.352Z,11.17
2018-11-28T05:41:07.306Z,4.17
2018-11-28T05:43:38.345Z,5.07
2018-11-28T05:46:09.423Z,6.00
2018-11-28T05:48:40.428Z,4.20
2018-11-28T05:51:11.341Z,9.10
2018-11-28T05:53:42.313Z,7.20
2018-11-28T05:56:13.027Z,10.40
2018-11-28T05:58:43.908Z,5.87
2018-11-28T06:01:14.683Z,7.53
2018-11-28T06:03:45.814Z,5.73
2018-11-28T06:06:16.773Z,9.83
2018-11-28T06:08:47.563Z,6.40
2018-11-28T06:11:18.379Z,6.53
2018-11-28T06:13:49.300Z,6.70
2018-11-28T06:16:20.130Z,6.67
2018-11-28T06:18:51.228Z,13.25
2018-11-28T06:21:22.932Z,45.17
2018-11-28T06:23:54.163Z,18.60
2018-11-28T06:26:25.819Z,18.33
2018-11-28T06:28:56.685Z,9.90
2018-11-28T06:31:27.725Z,8.60
2018-11-28T06:33:58.490Z,4.73
2018-11-28T06:36:29.274Z,5.27
2018-11-28T06:39:00.251Z,6.93
2018-11-28T06:41:31.411Z,6.50
2018-11-28T06:44:02.362Z,11.13
2018-11-28T06:46:33.295Z,11.03
2018-11-28T06:49:04.242Z,6.47
2018-11-28T06:51:35.249Z,6.20
2018-11-28T06:54:06.257Z,11.77
2018-11-28T06:56:37.909Z,8.10
2018-11-28T06:59:08.734Z,10.97
2018-11-28T07:01:39.719Z,10.03
2018-11-28T07:04:10.750Z,6.03
2018-11-28T07:06:41.653Z,4.93
2018-11-28T07:09:12.593Z,7.23
2018-11-28T07:11:43.277Z,6.83
2018-11-28T07:14:14.071Z,6.77
2018-11-28T07:16:44.859Z,5.53
2018-11-28T07:19:15.565Z,8.10
2018-11-28T07:21:46.532Z,36.50
2018-11-28T07:24:17.509Z,28.10
2018-11-28T07:26:48.366Z,28.37
2018-11-28T07:29:19.155Z,38.77
2018-11-28T07:31:49.975Z,26.30
2018-11-28T07:34:21.152Z,24.83
2018-11-28T07:36:52.272Z,27.67
2018-11-28T07:39:23.172Z,28.60
2018-11-28T07:41:54.113Z,41.43
2018-11-28T07:44:25.089Z,33.40
2018-11-28T07:46:55.903Z,23.00
2018-11-28T07:49:26.612Z,19.53
2018-11-28T07:51:57.598Z,13.97
2018-11-28T07:54:28.552Z,9.23
2018-11-28T07:56:59.505Z,5.53
2018-11-28T07:59:32.336Z,8.33
2018-11-28T08:02:06.502Z,6.67
2018-11-28T08:04:38.749Z,5.83
2018-11-28T08:07:10.305Z,6.37
2018-11-28T08:09:42.651Z,6.63
2018-11-28T08:12:13.903Z,8.60
2018-11-28T08:14:45.588Z,4.80
2018-11-28T08:17:16.957Z,6.40
2018-11-28T08:19:47.848Z,6.67
2018-11-28T08:22:18.651Z,5.10
2018-11-28T08:24:49.686Z,6.50
2018-11-28T08:27:21.181Z,4.67
2018-11-28T08:29:52.401Z,5.40
2018-11-28T08:32:23.768Z,6.57
2018-11-28T08:34:55.027Z,3.90
2018-11-28T08:37:26.781Z,5.13
2018-11-28T08:39:58.018Z,5.13
2018-11-28T08:42:29.496Z,5.17
2018-11-28T08:45:00.577Z,4.33
2018-11-28T08:47:32.852Z,4.27
2018-11-28T08:50:03.993Z,5.43
2018-11-28T08:52:34.949Z,7.23
2018-11-28T08:55:06.632Z,5.73
2018-11-28T08:57:37.767Z,5.33
2018-11-28T09:00:15.402Z,5.60
2018-11-28T09:02:47.781Z,3.97
2018-11-28T09:05:18.843Z,4.57
2018-11-28T09:07:50.192Z,4.20
2018-11-28T09:10:22.161Z,4.83
2018-11-28T09:12:53.365Z,5.67
2018-11-28T09:15:29.092Z,3.70
2018-11-28T09:18:00.762Z,3.77
2018-11-28T09:20:31.492Z,5.37
2018-11-28T09:23:02.738Z,5.13
2018-11-28T09:25:34.215Z,4.73
2018-11-28T09:28:05.973Z,4.40
2018-11-28T09:30:37.091Z,6.77
2018-11-28T09:33:08.737Z,5.77
2018-11-28T09:35:40.891Z,7.07
2018-11-28T09:38:11.941Z,6.60
2018-11-28T09:40:43.381Z,6.80
2018-11-28T09:43:14.438Z,4.47
2018-11-28T09:45:45.384Z,6.67
2018-11-28T09:48:16.120Z,5.00
2018-11-28T09:50:46.854Z,5.83
2018-11-28T09:53:18.355Z,7.33
2018-11-28T09:55:49.566Z,4.57
2018-11-28T09:58:20.341Z,7.67
2018-11-28T10:00:51.280Z,4.20
2018-11-28T10:03:22.340Z,7.87
2018-11-28T10:05:53.362Z,6.30
2018-11-28T10:08:24.738Z,4.77
2018-11-28T10:10:55.768Z,3.70
2018-11-28T10:13:27.046Z,4.57
2018-11-28T10:15:58.268Z,5.07
2018-11-28T10:18:29.220Z,4.27
2018-11-28T10:21:00.905Z,4.27
2018-11-28T10:23:31.928Z,5.20
2018-11-28T10:26:02.753Z,5.03
2018-11-28T10:28:33.753Z,4.87
2018-11-28T10:31:04.896Z,7.70
2018-11-28T10:33:35.880Z,6.87
2018-11-28T10:36:07.693Z,9.73
2018-11-28T10:38:38.951Z,6.00
2018-11-28T10:41:09.629Z,6.07
2018-11-28T10:43:41.385Z,6.03
2018-11-28T10:46:12.524Z,9.03
2018-11-28T10:48:43.697Z,5.77
2018-11-28T10:51:14.977Z,4.73
2018-11-28T10:53:46.302Z,6.73
2018-11-28T10:56:17.558Z,5.13
2018-11-28T10:58:48.510Z,6.80
2018-11-28T11:01:26.325Z,5.27
2018-11-28T11:04:02.094Z,4.73
2018-11-28T11:06:37.898Z,6.30
2018-11-28T11:09:15.348Z,4.90
2018-11-28T11:11:51.168Z,5.20
2018-11-28T11:14:27.146Z,5.20
2018-11-28T11:16:59.285Z,4.40
2018-11-28T11:19:30.425Z,7.17
2018-11-28T11:22:02.602Z,6.70
2018-11-28T11:24:33.793Z,6.77
2018-11-28T11:27:05.308Z,6.07
2018-11-28T11:29:36.972Z,6.33
2018-11-28T11:32:08.935Z,5.63
2018-11-28T11:34:40.887Z,6.23
2018-11-28T11:37:11.656Z,7.07
2018-11-28T11:39:43.005Z,6.90
2018-11-28T11:42:14.388Z,6.07
2018-11-28T11:44:45.729Z,6.17
2018-11-28T11:47:16.599Z,7.83
2018-11-28T11:49:47.741Z,5.37
2018-11-28T11:52:18.865Z,6.40
2018-11-28T11:54:49.992Z,6.10
2018-11-28T11:57:21.402Z,5.10
2018-11-28T11:59:54.094Z,7.30
2018-11-28T12:02:25.968Z,4.70
2018-11-28T12:04:58.777Z,7.47
2018-11-28T12:07:29.699Z,4.77
2018-11-28T12:10:00.952Z,7.13
2018-11-28T12:12:32.087Z,6.63
2018-11-28T12:15:03.036Z,6.77
2018-11-28T12:17:33.827Z,6.33
2018-11-28T12:20:04.974Z,6.63
2018-11-28T12:22:36.453Z,10.30
2018-11-28T12:25:07.806Z,7.60
2018-11-28T12:27:39.034Z,7.20
2018-11-28T12:30:14.566Z,5.87
2018-11-28T12:32:46.871Z,6.17
2018-11-28T12:35:20.366Z,11.23
2018-11-28T12:37:51.293Z,6.13
2018-11-28T12:40:22.211Z,5.37
2018-11-28T12:42:54.087Z,5.27
2018-11-28T12:45:24.866Z,6.13
2018-11-28T12:47:57.008Z,7.60
2018-11-28T12:50:31.321Z,4.93
2018-11-28T12:53:03.495Z,4.90
2018-11-28T12:55:38.040Z,7.63
2018-11-28T12:58:14.605Z,7.17
2018-11-28T13:00:46.193Z,6.10
2018-11-28T13:03:18.778Z,6.73
2018-11-28T13:05:49.986Z,7.37
2018-11-28T13:08:21.273Z,8.20
2018-11-28T13:10:52.431Z,8.10
2018-11-28T13:13:23.882Z,8.17
2018-11-28T13:15:55.572Z,9.80
2018-11-28T13:18:26.535Z,8.87
2018-11-28T13:20:57.850Z,8.17
2018-11-28T13:23:29.222Z,7.07
2018-11-28T13:26:00.722Z,6.70
2018-11-28T13:28:31.800Z,5.33
2018-11-28T13:31:02.997Z,10.03
2018-11-28T13:33:35.012Z,9.03
2018-11-28T13:36:07.822Z,8.27
2018-11-28T13:38:39.596Z,7.47
2018-11-28T13:41:11.016Z,6.17
2018-11-28T13:43:41.990Z,8.57
2018-11-28T13:46:13.872Z,8.10
2018-11-28T13:48:45.313Z,5.77
2018-11-28T13:51:16.330Z,9.73
2018-11-28T13:53:47.219Z,6.17
2018-11-28T13:58:50.905Z,6.83
2018-11-28T14:01:23.531Z,7.50
2018-11-28T14:03:54.433Z,6.20
2018-11-28T14:06:25.806Z,5.27
2018-11-28T14:08:56.951Z,6.00
2018-11-28T14:11:27.662Z,7.37
2018-11-28T14:13:58.591Z,6.17
2018-11-28T14:16:30.023Z,6.47
2018-11-28T14:19:01.220Z,4.90
2018-11-28T14:21:32.119Z,7.20
2018-11-28T14:24:03.118Z,6.07
2018-11-28T14:26:33.905Z,6.17
2018-11-28T14:29:07.200Z,7.63
2018-11-28T14:31:38.340Z,6.77
2018-11-28T14:34:09.287Z,6.47
2018-11-28T14:36:40.383Z,9.73
2018-11-28T14:39:17.941Z,7.27
2018-11-28T14:41:49.018Z,6.73
2018-11-28T14:44:20.321Z,6.13
2018-11-28T14:46:51.351Z,5.83
2018-11-28T14:49:22.824Z,9.07
2018-11-28T14:51:54.708Z,7.53
2018-11-28T14:54:25.746Z,8.60
2018-11-28T14:56:58.001Z,6.37
2018-11-28T14:59:29.379Z,9.27
2018-11-28T15:02:00.306Z,6.77
2018-11-28T15:04:31.360Z,9.73
2018-11-28T15:07:04.653Z,9.97
2018-11-28T15:09:40.316Z,17.30
2018-11-28T15:12:13.751Z,7.70
2018-11-28T15:14:44.835Z,11.90
2018-11-28T15:17:15.996Z,12.93
2018-11-28T15:19:46.906Z,7.83
2018-11-28T15:22:17.665Z,8.27
2018-11-28T15:24:48.475Z,7.87
2018-11-28T15:27:19.295Z,8.60
2018-11-28T15:29:50.333Z,8.73
2018-11-28T15:32:21.220Z,7.63
2018-11-28T15:34:57.801Z,8.20
2018-11-28T15:37:23.741Z,6.33
2018-11-28T15:39:55.959Z,8.77
2018-11-28T15:42:25.797Z,7.20
2018-11-28T15:44:56.700Z,8.17
2018-11-28T15:47:28.012Z,7.73
2018-11-28T15:50:00.138Z,6.80
2018-11-28T15:52:31.375Z,11.97
2018-11-28T15:55:02.303Z,9.43
2018-11-28T15:57:33.838Z,7.70
2018-11-28T16:00:05.507Z,8.07
2018-11-28T16:02:36.363Z,8.10
2018-11-28T16:05:09.091Z,9.70
2018-11-28T16:07:40.119Z,7.43
2018-11-28T16:10:18.512Z,9.13
2018-11-28T16:12:50.547Z,10.37
2018-11-28T16:15:23.789Z,19.67
2018-11-28T16:17:57.217Z,11.77
2018-11-28T16:20:30.049Z,9.63
2018-11-28T16:23:04.367Z,9.43
2018-11-28T16:25:32.691Z,7.90
2018-11-28T16:28:05.798Z,14.77
2018-11-28T16:30:41.407Z,7.57
2018-11-28T16:33:20.218Z,10.47
2018-11-28T16:35:55.178Z,8.70
2018-11-28T16:38:30.336Z,7.27
2018-11-28T16:41:09.560Z,8.40
2018-11-28T16:43:45.843Z,7.53
2018-11-28T16:46:39.716Z,10.90
2018-11-28T16:49:16.900Z,12.40
2018-11-28T16:51:50.313Z,13.27
2018-11-28T16:54:25.218Z,8.40
2018-11-28T16:57:01.598Z,9.87
2018-11-28T16:59:46.915Z,9.77
2018-11-28T17:02:25.403Z,18.90
2018-11-28T17:05:13.955Z,12.43
2018-11-28T17:07:46.486Z,11.53
2018-11-28T17:10:22.138Z,8.20
2018-11-28T17:12:55.750Z,7.67
2018-11-28T17:15:28.730Z,17.27
2018-11-28T17:18:12.145Z,11.60
2018-11-28T17:23:29.924Z,7.97
2018-11-28T17:26:03.025Z,9.70
2018-11-28T17:28:43.586Z,11.43
2018-11-28T17:31:46.050Z,15.67
2018-11-28T17:34:27.163Z,16.93
2018-11-28T17:37:01.705Z,23.17
2018-11-28T17:39:37.130Z,18.90
2018-11-28T17:42:10.165Z,32.87
2018-11-28T17:44:42.680Z,16.93
2018-11-28T17:47:17.384Z,26.07
2018-11-28T17:49:50.499Z,35.00
2018-11-28T17:52:23.530Z,51.60
2018-11-28T17:54:56.326Z,27.87
2018-11-28T17:57:30.366Z,17.27
2018-11-28T18:00:03.481Z,12.77
2018-11-28T18:02:34.968Z,9.60
2018-11-28T18:05:07.129Z,42.07
2018-11-28T18:07:38.212Z,38.10
2018-11-28T18:10:16.711Z,26.77
2018-11-28T18:13:08.890Z,40.33
2018-11-28T18:15:40.945Z,32.10
2018-11-28T18:18:15.015Z,12.53
2018-11-28T18:20:50.199Z,14.73
2018-11-28T18:23:17.351Z,8.53
2018-11-28T18:25:49.719Z,101.40
2018-11-28T18:28:20.818Z,37.97
2018-11-28T18:30:53.234Z,14.47
2018-11-28T18:33:25.041Z,29.63
2018-11-28T18:35:56.898Z,32.20
2018-11-28T18:38:28.160Z,18.40
2018-11-28T18:40:59.534Z,13.57
2018-11-28T18:43:31.013Z,20.50
2018-11-28T18:46:02.774Z,25.57
2018-11-28T18:48:37.480Z,16.73
2018-11-28T18:51:08.934Z,28.40
2018-11-28T18:53:40.801Z,22.20
2018-11-28T18:56:11.773Z,48.50
2018-11-28T18:58:43.672Z,21.50
2018-11-28T19:01:15.755Z,16.73
2018-11-28T19:03:47.747Z,14.10
2018-11-28T19:06:18.780Z,13.10
2018-11-28T19:08:50.161Z,12.17
2018-11-28T19:11:21.046Z,16.07
2018-11-28T19:13:52.199Z,14.43
2018-11-28T19:16:24.699Z,33.20
2018-11-28T19:18:56.681Z,17.57
2018-11-28T19:21:28.512Z,17.23
2018-11-28T19:23:59.924Z,16.83
2018-11-28T19:26:31.642Z,22.70
2018-11-28T19:29:04.155Z,19.65
2018-11-28T19:31:36.013Z,32.53
2018-11-28T19:34:07.629Z,48.27
2018-11-28T19:36:39.284Z,56.70
2018-11-28T19:39:12.077Z,56.73
2018-11-28T19:41:43.654Z,36.53
2018-11-28T19:44:15.730Z,19.97
2018-11-28T19:46:47.163Z,17.47
2018-11-28T19:49:19.499Z,12.58
2018-11-28T19:51:50.958Z,12.53
2018-11-28T19:54:22.748Z,14.20
2018-11-28T19:56:55.417Z,13.27
2018-11-28T19:59:26.571Z,25.57
2018-11-28T20:01:59.001Z,13.95
2018-11-28T20:04:32.318Z,11.55
2018-11-28T20:07:05.406Z,14.80
2018-11-28T20:09:36.847Z,13.53
2018-11-28T20:12:08.467Z,11.38
2018-11-28T20:14:41.105Z,13.03
2018-11-28T20:17:12.743Z,10.83
2018-11-28T20:19:45.174Z,16.67
2018-11-28T20:22:16.922Z,12.30
2018-11-28T20:24:50.884Z,11.97
2018-11-28T20:27:23.127Z,12.28
2018-11-28T20:29:56.529Z,13.32
2018-11-28T20:32:28.187Z,15.60
2018-11-28T20:35:02.996Z,35.68
2018-11-28T20:37:32.168Z,27.22
2018-11-28T20:40:04.088Z,30.10
2018-11-28T20:42:35.702Z,25.00
2018-11-28T20:45:08.013Z,25.88
2018-11-28T20:47:39.312Z,23.57
2018-11-28T20:50:14.347Z,23.07
2018-11-28T20:52:54.802Z,15.45
2018-11-28T20:55:21.420Z,14.40
2018-11-28T20:57:52.450Z,14.40
2018-11-28T21:00:25.684Z,13.88
2018-11-28T21:02:56.698Z,16.42
2018-11-28T21:05:27.953Z,19.65
2018-11-28T21:07:59.196Z,52.25
2018-11-28T21:10:37.433Z,30.17
2018-11-28T21:13:13.885Z,27.35
2018-11-28T21:15:46.802Z,20.05
2018-11-28T21:18:18.686Z,22.40
2018-11-28T21:20:49.803Z,18.90
2018-11-28T21:23:21.683Z,16.67
2018-11-28T21:25:52.527Z,30.37
2018-11-28T21:28:23.474Z,35.60
2018-11-28T21:30:54.549Z,36.73
2018-11-28T21:33:26.007Z,36.40
2018-11-28T21:35:57.202Z,32.93
2018-11-28T21:38:28.274Z,29.32
2018-11-28T21:40:59.561Z,22.15
2018-11-28T21:43:30.420Z,26.45
2018-11-28T21:46:01.744Z,23.75
2018-11-28T21:48:32.762Z,20.32
2018-11-28T21:51:03.512Z,18.35
2018-11-28T21:53:34.356Z,17.85
2018-11-28T21:56:05.441Z,20.08
2018-11-28T21:58:36.332Z,24.85
2018-11-28T22:01:07.593Z,23.98
2018-11-28T22:03:38.679Z,22.13
2018-11-28T22:06:09.620Z,20.48
2018-11-28T22:08:40.383Z,29.05
2018-11-28T22:11:11.150Z,19.30
2018-11-28T22:13:42.596Z,16.20
2018-11-28T22:16:13.677Z,8.75
2018-11-28T22:18:45.330Z,8.35
2018-11-28T22:21:16.730Z,15.35
2018-11-28T22:23:47.886Z,15.08
2018-11-28T22:26:18.913Z,17.85
2018-11-28T22:28:50.226Z,12.15
2018-11-28T22:31:21.496Z,15.20
2018-11-28T22:33:52.585Z,18.02
2018-11-28T22:36:23.865Z,21.10
2018-11-28T22:38:54.952Z,19.10
2018-11-28T22:41:25.930Z,17.37
2018-11-28T22:43:56.671Z,21.57
2018-11-28T22:46:27.532Z,19.77
2018-11-28T22:48:58.433Z,22.25
2018-11-28T22:51:29.383Z,18.15
2018-11-28T22:54:00.261Z,26.12
2018-11-28T22:56:31.004Z,22.10
2018-11-28T22:59:02.061Z,26.42
2018-11-28T23:01:49.579Z,30.37
2018-11-28T23:04:20.501Z,29.63
2018-11-28T23:06:51.458Z,19.77
2018-11-28T23:09:22.509Z,20.25
2018-11-28T23:11:53.627Z,21.05
2018-11-28T23:14:25.533Z,18.05
2018-11-28T23:16:56.498Z,17.30
2018-11-28T23:19:27.440Z,15.50
2018-11-28T23:21:58.632Z,17.35
2018-11-28T23:24:29.686Z,20.35
2018-11-28T23:27:00.574Z,17.67
2018-11-28T23:29:31.781Z,17.50
2018-11-28T23:32:03.259Z,17.10
2018-11-28T23:34:34.098Z,18.87
2018-11-28T23:37:04.956Z,15.83
2018-11-28T23:39:35.940Z,15.13
2018-11-28T23:42:06.668Z,9.58
2018-11-28T23:44:37.663Z,13.72
2018-11-28T23:47:08.676Z,10.82
2018-11-28T23:49:39.647Z,9.78
2018-11-28T23:52:12.947Z,12.50
2018-11-28T23:54:43.907Z,13.85
2018-11-28T23:57:14.867Z,15.05
2018-11-28T23:59:45.868Z,17.30
